createdAt,value
2023-05-22T00:01:49.984Z,18.00
2023-05-22T00:06:53.694Z,17.97
2023-05-22T00:11:55.394Z,17.95
2023-05-22T00:16:59.321Z,17.94
2023-05-22T00:22:04.018Z,17.93
2023-05-22T00:27:05.833Z,17.91
2023-05-22T00:32:07.835Z,17.89
2023-05-22T00:37:09.488Z,17.88
2023-05-22T00:42:11.694Z,17.86
2023-05-22T00:47:13.707Z,17.78
2023-05-22T00:52:15.855Z,17.76
2023-05-22T00:57:17.844Z,17.77
2023-05-22T01:02:19.896Z,17.79
2023-05-22T01:07:21.567Z,17.80
2023-05-22T01:12:34.603Z,17.75
2023-05-22T01:17:40.150Z,17.75
2023-05-22T01:22:52.074Z,17.78
2023-05-22T01:27:59.888Z,17.78
2023-05-22T01:33:01.841Z,17.79
2023-05-22T01:38:03.749Z,17.80
2023-05-22T01:43:05.745Z,17.78
2023-05-22T01:48:07.469Z,17.77
2023-05-22T01:53:15.938Z,17.73
2023-05-22T01:58:36.249Z,17.73
2023-05-22T02:03:38.140Z,17.75
2023-05-22T02:08:41.341Z,17.76
2023-05-22T02:13:42.957Z,17.72
2023-05-22T02:18:45.053Z,17.69
2023-05-22T02:23:46.794Z,17.68
2023-05-22T02:28:48.650Z,17.66
2023-05-22T02:33:50.563Z,17.67
2023-05-22T02:38:52.441Z,17.67
2023-05-22T02:43:54.301Z,17.67
2023-05-22T02:48:55.998Z,17.67
2023-05-22T02:53:57.872Z,17.67
2023-05-22T02:58:59.822Z,17.67
2023-05-22T03:04:03.112Z,17.68
2023-05-22T03:09:05.113Z,17.71
2023-05-22T03:14:06.991Z,17.71
2023-05-22T03:19:12.899Z,17.72
2023-05-22T03:24:15.043Z,17.74
2023-05-22T03:29:17.002Z,17.78
2023-05-22T03:34:18.802Z,17.80
2023-05-22T03:39:22.276Z,17.86
2023-05-22T03:44:24.473Z,17.92
2023-05-22T03:49:26.129Z,18.02
2023-05-22T03:54:27.877Z,18.09
2023-05-22T03:59:29.734Z,18.15
2023-05-22T04:04:35.134Z,18.21
2023-05-22T04:09:37.986Z,18.26
2023-05-22T04:14:39.766Z,18.30
2023-05-22T04:19:41.629Z,18.40
2023-05-22T04:24:43.422Z,18.50
2023-05-22T04:29:48.614Z,18.59
2023-05-22T04:34:50.683Z,18.71
2023-05-22T04:39:52.537Z,18.91
2023-05-22T04:44:54.207Z,19.09
2023-05-22T04:49:56.087Z,19.23
2023-05-22T04:54:59.948Z,19.30
2023-05-22T05:00:03.849Z,19.32
2023-05-22T05:05:05.726Z,19.34
2023-05-22T05:10:08.239Z,19.55
2023-05-22T05:15:10.165Z,19.77
2023-05-22T05:20:12.180Z,19.86
2023-05-22T05:25:14.972Z,20.01
2023-05-22T05:30:18.299Z,20.11
2023-05-22T05:35:22.209Z,20.25
2023-05-22T05:40:24.695Z,20.56
2023-05-22T05:45:26.575Z,20.65
2023-05-22T05:50:28.462Z,20.61
2023-05-22T05:55:30.797Z,20.51
2023-05-22T06:00:33.553Z,20.43
2023-05-22T06:05:35.310Z,20.50
2023-05-22T06:10:37.448Z,20.63
2023-05-22T06:15:39.515Z,20.72
2023-05-22T06:20:41.580Z,21.06
2023-05-22T06:25:45.614Z,21.38
2023-05-22T06:30:47.811Z,21.47
2023-05-22T06:35:49.796Z,21.44
2023-05-22T06:40:51.462Z,21.37
2023-05-22T06:45:55.031Z,21.37
2023-05-22T06:50:56.941Z,21.43
2023-05-22T06:55:58.638Z,21.42
2023-05-22T07:01:00.440Z,21.85
2023-05-22T07:06:02.263Z,22.09
2023-05-22T07:11:04.358Z,22.21
2023-05-22T07:16:06.402Z,22.23
2023-05-22T07:21:08.340Z,22.10
2023-05-22T07:26:10.200Z,22.25
2023-05-22T07:31:12.033Z,22.69
2023-05-22T07:36:13.752Z,22.99
2023-05-22T07:41:15.524Z,23.25
2023-05-22T07:46:17.403Z,23.38
2023-05-22T07:51:19.190Z,23.38
2023-05-22T07:56:21.049Z,23.56
2023-05-22T08:01:23.129Z,23.76
2023-05-22T08:06:24.868Z,24.11
2023-05-22T08:11:26.795Z,24.38
2023-05-22T08:16:31.647Z,24.46
2023-05-22T08:21:34.840Z,24.52
2023-05-22T08:26:36.945Z,24.48
2023-05-22T08:31:38.942Z,24.64
2023-05-22T08:36:40.784Z,24.80
2023-05-22T08:41:42.656Z,25.13
2023-05-22T08:46:44.461Z,25.72
2023-05-22T08:51:48.256Z,26.06
2023-05-22T08:56:56.776Z,26.05
2023-05-22T09:01:59.211Z,25.85
2023-05-22T09:07:00.859Z,25.66
2023-05-22T09:12:02.616Z,25.87
2023-05-22T09:17:04.623Z,26.59
2023-05-22T09:22:06.395Z,27.17
2023-05-22T09:27:08.274Z,27.44
2023-05-22T09:32:13.785Z,27.52
2023-05-22T09:37:18.600Z,27.69
2023-05-22T09:42:20.486Z,27.97
2023-05-22T09:47:24.412Z,28.38
2023-05-22T09:52:28.483Z,28.80
2023-05-22T09:57:32.241Z,28.91
2023-05-22T10:02:34.492Z,29.12
2023-05-22T10:07:37.062Z,29.40
2023-05-22T10:12:44.662Z,29.79
2023-05-22T10:17:46.561Z,30.24
2023-05-22T10:22:48.500Z,30.65
2023-05-22T10:27:52.940Z,31.09
2023-05-22T10:33:03.965Z,31.32
2023-05-22T10:38:24.439Z,31.51
2023-05-22T10:43:29.894Z,32.00
2023-05-22T10:48:43.821Z,32.19
2023-05-22T10:53:59.905Z,32.34
2023-05-22T10:59:02.871Z,32.51
2023-05-22T11:04:04.562Z,32.63
2023-05-22T11:09:21.625Z,32.85
2023-05-22T11:14:23.669Z,33.13
2023-05-22T11:19:25.668Z,33.03
2023-05-22T11:24:32.129Z,33.11
2023-05-22T11:29:34.208Z,33.06
2023-05-22T11:34:39.386Z,32.58
2023-05-22T11:39:41.264Z,32.09
2023-05-22T11:44:43.032Z,32.59
2023-05-22T11:49:44.661Z,32.52
2023-05-22T11:54:46.978Z,32.78
2023-05-22T11:59:48.970Z,32.82
2023-05-22T12:04:57.433Z,33.51
2023-05-22T12:09:59.525Z,33.99
2023-05-22T12:15:01.272Z,33.50
2023-05-22T12:20:03.853Z,34.31
2023-05-22T12:25:13.792Z,34.96
2023-05-22T12:30:16.396Z,35.22
2023-05-22T12:35:18.470Z,35.18
2023-05-22T12:40:20.323Z,35.02
2023-05-22T12:45:22.257Z,34.56
2023-05-22T12:50:24.236Z,33.69
2023-05-22T12:55:26.120Z,32.63
2023-05-22T13:00:28.020Z,31.88
2023-05-22T13:05:29.969Z,31.41
2023-05-22T13:10:31.958Z,31.17
2023-05-22T13:15:33.950Z,30.92
2023-05-22T13:20:35.910Z,30.28
2023-05-22T13:25:37.839Z,30.20
2023-05-22T13:30:40.258Z,30.02
2023-05-22T13:35:42.745Z,30.04
2023-05-22T13:40:48.334Z,29.98
2023-05-22T13:45:50.628Z,29.55
2023-05-22T13:50:52.523Z,29.22
2023-05-22T13:55:54.392Z,29.01
2023-05-22T14:00:56.290Z,28.82
2023-05-22T14:06:00.148Z,28.73
2023-05-22T14:11:01.816Z,28.56
2023-05-22T14:16:03.606Z,28.30
2023-05-22T14:21:05.646Z,27.96
2023-05-22T14:26:07.703Z,27.83
2023-05-22T14:31:09.609Z,27.68
2023-05-22T14:36:11.568Z,27.43
2023-05-22T14:41:13.567Z,27.23
2023-05-22T14:46:15.440Z,27.12
2023-05-22T14:51:21.091Z,27.08
2023-05-22T14:56:22.805Z,26.93
2023-05-22T15:01:24.703Z,26.82
2023-05-22T15:06:26.579Z,26.75
2023-05-22T15:11:28.613Z,26.66
2023-05-22T15:16:30.619Z,26.50
2023-05-22T15:21:33.904Z,26.44
2023-05-22T15:26:35.736Z,26.45
2023-05-22T15:31:37.737Z,26.48
2023-05-22T15:36:39.670Z,26.55
2023-05-22T15:41:44.693Z,26.56
2023-05-22T15:46:50.799Z,26.51
2023-05-22T15:51:52.850Z,26.40
2023-05-22T15:56:54.568Z,26.26
2023-05-22T16:01:56.405Z,26.17
2023-05-22T16:06:58.215Z,26.03
2023-05-22T16:12:00.233Z,25.86
2023-05-22T16:17:01.944Z,25.79
2023-05-22T16:22:04.021Z,25.69
2023-05-22T16:27:06.043Z,25.64
2023-05-22T16:32:07.830Z,25.55
2023-05-22T16:37:09.488Z,25.45
2023-05-22T16:42:11.430Z,25.42
2023-05-22T16:47:13.311Z,25.36
2023-05-22T16:52:15.393Z,25.26
2023-05-22T16:57:17.134Z,25.16
2023-05-22T17:02:19.048Z,25.08
2023-05-22T17:07:20.770Z,25.04
2023-05-22T17:12:22.451Z,24.97
2023-05-22T17:17:24.396Z,24.90
2023-05-22T17:22:26.454Z,24.82
2023-05-22T17:27:36.225Z,24.74
2023-05-22T17:32:38.582Z,24.70
2023-05-22T17:37:40.617Z,24.66
2023-05-22T17:42:42.580Z,24.62
2023-05-22T17:47:44.804Z,24.61
2023-05-22T17:52:46.853Z,24.58
2023-05-22T17:57:48.717Z,24.57
2023-05-22T18:02:50.637Z,24.52
2023-05-22T18:07:52.688Z,24.44
2023-05-22T18:12:54.655Z,24.32
2023-05-22T18:17:56.517Z,24.23
2023-05-22T18:22:58.663Z,24.12
2023-05-22T18:28:00.499Z,23.99
2023-05-22T18:33:02.229Z,23.89
2023-05-22T18:38:04.145Z,23.79
2023-05-22T18:43:05.977Z,23.68
2023-05-22T18:48:07.960Z,23.57
2023-05-22T18:53:10.164Z,23.47
2023-05-22T18:58:12.175Z,23.36
2023-05-22T19:03:14.314Z,23.25
2023-05-22T19:08:16.442Z,23.16
2023-05-22T19:13:20.931Z,23.05
2023-05-22T19:18:23.993Z,22.89
2023-05-22T19:23:26.083Z,22.77
2023-05-22T19:28:28.593Z,22.69
2023-05-22T19:33:30.392Z,22.66
2023-05-22T19:38:32.378Z,22.56
2023-05-22T19:43:34.174Z,22.47
2023-05-22T19:48:35.908Z,22.39
2023-05-22T19:53:37.851Z,22.24
2023-05-22T19:58:39.942Z,22.11
2023-05-22T20:03:42.837Z,22.01
2023-05-22T20:08:46.199Z,21.90
2023-05-22T20:13:48.129Z,21.83
2023-05-22T20:18:50.035Z,21.74
2023-05-22T20:23:55.303Z,21.63
2023-05-22T20:28:56.999Z,21.50
2023-05-22T20:33:58.846Z,21.37
2023-05-22T20:39:00.802Z,21.24
2023-05-22T20:44:02.430Z,21.12
2023-05-22T20:49:04.273Z,20.97
2023-05-22T20:54:06.154Z,20.84
2023-05-22T20:59:08.165Z,20.75
2023-05-22T21:04:10.899Z,20.67
2023-05-22T21:09:12.590Z,20.59
2023-05-22T21:14:14.571Z,20.53
2023-05-22T21:19:16.497Z,20.45
2023-05-22T21:24:18.525Z,20.40
2023-05-22T21:29:20.308Z,20.31
2023-05-22T21:34:21.990Z,20.26
2023-05-22T21:39:23.867Z,20.20
2023-05-22T21:44:25.836Z,20.12
2023-05-22T21:49:27.477Z,20.06
2023-05-22T21:54:30.102Z,20.01
2023-05-22T21:59:31.831Z,19.95
2023-05-22T22:04:34.883Z,19.88
2023-05-22T22:09:37.076Z,19.80
2023-05-22T22:14:39.368Z,19.72
2023-05-22T22:19:41.116Z,19.65
2023-05-22T22:24:42.700Z,19.60
2023-05-22T22:29:44.499Z,19.53
2023-05-22T22:34:46.434Z,19.49
2023-05-22T22:39:48.248Z,19.45
2023-05-22T22:44:49.919Z,19.41
2023-05-22T22:49:55.275Z,19.38
2023-05-22T22:54:58.486Z,19.31
2023-05-22T23:00:00.358Z,19.24
2023-05-22T23:05:02.244Z,19.15
2023-05-22T23:10:04.623Z,19.07
2023-05-22T23:15:07.220Z,19.04
2023-05-22T23:20:09.512Z,18.99
2023-05-22T23:25:11.414Z,18.93
2023-05-22T23:30:13.277Z,18.85
2023-05-22T23:35:15.148Z,18.77
2023-05-22T23:40:17.052Z,18.70
2023-05-22T23:45:21.151Z,18.68
2023-05-22T23:50:24.818Z,18.71
2023-05-22T23:55:30.891Z,18.70
